createdAt,value
2022-10-25T00:00:13.155Z,12.41
2022-10-25T00:02:40.362Z,12.55
2022-10-25T00:05:08.335Z,12.54
2022-10-25T00:07:35.425Z,12.60
2022-10-25T00:10:02.994Z,12.56
2022-10-25T00:12:31.411Z,12.40
2022-10-25T00:15:04.052Z,12.57
2022-10-25T00:17:31.197Z,12.60
2022-10-25T00:19:58.311Z,12.66
2022-10-25T00:22:25.416Z,12.67
2022-10-25T00:24:52.488Z,12.71
2022-10-25T00:27:19.690Z,12.60
2022-10-25T00:29:46.765Z,12.57
2022-10-25T00:32:13.852Z,12.66
2022-10-25T00:34:41.210Z,12.57
2022-10-25T00:37:08.327Z,12.47
2022-10-25T00:39:35.419Z,12.53
2022-10-25T00:42:02.726Z,12.54
2022-10-25T00:44:39.011Z,11.95
2022-10-25T00:47:21.270Z,12.22
2022-10-25T00:50:23.493Z,12.27
2022-10-25T00:52:56.289Z,12.31
2022-10-25T00:55:27.516Z,12.41
2022-10-25T00:58:06.896Z,12.05
2022-10-25T01:00:36.261Z,11.99
2022-10-25T01:03:06.431Z,12.23
2022-10-25T01:05:35.810Z,12.35
2022-10-25T01:08:04.765Z,12.38
2022-10-25T01:10:32.545Z,12.10
2022-10-25T01:13:02.298Z,12.23
2022-10-25T01:15:44.864Z,12.29
2022-10-25T01:19:53.874Z,12.24
2022-10-25T01:22:43.287Z,12.21
2022-10-25T01:25:56.568Z,12.32
2022-10-25T01:29:12.589Z,12.27
2022-10-25T01:32:15.466Z,12.28
2022-10-25T01:34:56.720Z,12.34
2022-10-25T01:38:02.136Z,12.32
2022-10-25T01:40:48.334Z,12.24
2022-10-25T01:43:53.031Z,12.17
2022-10-25T01:46:29.504Z,12.20
2022-10-25T01:49:08.697Z,12.13
2022-10-25T01:51:37.395Z,12.14
2022-10-25T01:54:25.006Z,11.73
2022-10-25T01:57:51.181Z,11.91
2022-10-25T02:00:24.362Z,11.64
2022-10-25T02:03:15.981Z,11.80
2022-10-25T02:06:17.976Z,11.79
2022-10-25T02:09:05.721Z,11.77
2022-10-25T02:11:35.965Z,11.89
2022-10-25T02:14:37.945Z,11.84
2022-10-25T02:17:11.814Z,11.75
2022-10-25T02:19:48.059Z,11.79
2022-10-25T02:22:19.053Z,11.80
2022-10-25T02:24:50.401Z,11.48
2022-10-25T02:27:23.113Z,11.68
2022-10-25T02:29:52.883Z,11.77
2022-10-25T02:32:20.669Z,11.68
2022-10-25T02:34:49.398Z,11.73
2022-10-25T02:37:18.194Z,11.81
2022-10-25T02:39:46.468Z,11.49
2022-10-25T02:47:36.186Z,11.57
2022-10-25T02:50:04.741Z,11.51
2022-10-25T02:52:31.825Z,11.43
2022-10-25T02:54:58.884Z,11.38
2022-10-25T02:57:25.942Z,11.40
2022-10-25T02:59:53.021Z,11.34
2022-10-25T03:02:20.099Z,11.27
2022-10-25T03:04:47.162Z,11.25
2022-10-25T03:07:14.283Z,11.26
2022-10-25T03:09:41.485Z,11.21
2022-10-25T03:12:08.591Z,11.35
2022-10-25T03:14:35.675Z,11.29
2022-10-25T03:17:02.799Z,11.31
2022-10-25T03:19:29.872Z,11.28
2022-10-25T03:21:56.995Z,11.28
2022-10-25T03:24:24.132Z,10.78
2022-10-25T03:26:51.583Z,11.15
2022-10-25T03:29:19.578Z,11.19
2022-10-25T03:31:46.778Z,11.36
2022-10-25T03:34:13.876Z,11.48
2022-10-25T03:36:41.012Z,11.53
2022-10-25T03:39:08.100Z,11.57
2022-10-25T03:41:35.168Z,11.53
2022-10-25T03:44:02.266Z,11.52
2022-10-25T03:46:29.339Z,11.52
2022-10-25T03:48:56.523Z,11.53
2022-10-25T03:51:23.656Z,11.52
2022-10-25T03:53:50.734Z,11.45
2022-10-25T03:56:17.891Z,11.42
2022-10-25T03:58:44.978Z,11.35
2022-10-25T04:01:12.167Z,11.37
2022-10-25T04:03:39.410Z,11.29
2022-10-25T04:06:06.940Z,11.32
2022-10-25T04:08:34.061Z,11.26
2022-10-25T04:11:07.421Z,11.24
2022-10-25T04:13:34.795Z,11.22
2022-10-25T04:16:07.831Z,11.18
2022-10-25T04:18:35.290Z,11.20
2022-10-25T04:21:02.941Z,11.17
2022-10-25T04:23:31.391Z,11.13
2022-10-25T04:25:58.543Z,11.10
2022-10-25T04:28:29.390Z,11.12
2022-10-25T04:30:56.921Z,11.06
2022-10-25T04:33:24.033Z,11.04
2022-10-25T04:35:58.057Z,11.05
2022-10-25T04:38:25.526Z,11.02
2022-10-25T04:40:58.382Z,10.98
2022-10-25T04:43:28.950Z,10.93
2022-10-25T04:46:00.999Z,10.87
2022-10-25T04:48:28.527Z,10.86
2022-10-25T04:50:59.957Z,10.84
2022-10-25T04:53:27.535Z,10.85
2022-10-25T04:56:09.223Z,10.81
2022-10-25T04:58:37.242Z,10.84
2022-10-25T05:01:13.638Z,10.91
2022-10-25T05:03:41.731Z,10.91
2022-10-25T05:06:26.746Z,10.82
2022-10-25T05:08:54.480Z,10.84
2022-10-25T05:11:25.056Z,10.86
2022-10-25T05:13:52.619Z,10.71
2022-10-25T05:16:24.660Z,10.76
2022-10-25T05:18:55.151Z,10.76
2022-10-25T05:21:30.552Z,10.76
2022-10-25T05:24:01.901Z,10.74
2022-10-25T05:26:31.975Z,10.74
2022-10-25T05:29:07.888Z,10.73
2022-10-25T05:31:40.698Z,10.71
2022-10-25T05:34:09.887Z,10.70
2022-10-25T05:36:37.062Z,10.70
2022-10-25T05:39:04.335Z,10.67
2022-10-25T05:41:34.574Z,10.63
2022-10-25T05:44:05.808Z,10.66
2022-10-25T05:46:34.000Z,10.65
2022-10-25T05:49:02.154Z,10.63
2022-10-25T05:51:35.245Z,10.54
2022-10-25T05:54:13.098Z,10.52
2022-10-25T05:56:47.970Z,10.59
2022-10-25T05:59:15.985Z,10.54
2022-10-25T06:01:47.301Z,10.62
2022-10-25T06:04:17.534Z,10.61
2022-10-25T06:06:46.917Z,10.54
2022-10-25T06:09:14.687Z,10.60
2022-10-25T06:11:42.316Z,10.57
2022-10-25T06:14:11.169Z,10.63
2022-10-25T06:16:38.736Z,10.66
2022-10-25T06:19:06.787Z,10.68
2022-10-25T06:21:34.296Z,10.65
2022-10-25T06:24:01.778Z,10.66
2022-10-25T06:26:30.855Z,10.62
2022-10-25T06:29:05.601Z,10.48
2022-10-25T06:31:33.759Z,10.54
2022-10-25T06:34:02.935Z,10.60
2022-10-25T06:36:31.624Z,10.60
2022-10-25T06:39:05.673Z,10.65
2022-10-25T06:41:38.911Z,10.64
2022-10-25T06:44:07.774Z,10.68
2022-10-25T06:47:11.593Z,10.72
2022-10-25T06:49:27.459Z,10.69
2022-10-25T06:51:54.857Z,10.84
2022-10-25T06:54:22.004Z,10.91
2022-10-25T06:56:50.195Z,10.97
2022-10-25T06:59:17.873Z,10.88
2022-10-25T07:01:45.307Z,10.98
2022-10-25T07:04:12.606Z,11.11
2022-10-25T07:06:39.897Z,10.81
2022-10-25T07:09:09.861Z,10.46
2022-10-25T07:11:37.288Z,10.72
2022-10-25T07:14:04.701Z,11.04
2022-10-25T07:16:31.953Z,11.23
2022-10-25T07:19:04.569Z,11.33
2022-10-25T07:21:34.124Z,11.32
2022-10-25T07:24:01.792Z,11.31
2022-10-25T07:26:34.521Z,11.38
2022-10-25T07:29:05.242Z,11.67
2022-10-25T07:31:44.203Z,11.71
2022-10-25T07:34:15.765Z,11.79
2022-10-25T07:36:43.146Z,11.86
2022-10-25T07:39:10.335Z,11.89
2022-10-25T07:41:37.425Z,11.99
2022-10-25T07:44:04.645Z,12.05
2022-10-25T07:46:31.729Z,12.11
2022-10-25T07:48:58.852Z,12.14
2022-10-25T07:51:25.942Z,12.26
2022-10-25T07:53:53.781Z,12.38
2022-10-25T07:56:23.534Z,12.51
2022-10-25T07:58:52.391Z,12.55
2022-10-25T08:01:27.286Z,12.73
2022-10-25T08:03:57.878Z,12.69
2022-10-25T08:06:26.386Z,12.77
2022-10-25T08:08:54.056Z,12.92
2022-10-25T08:11:21.525Z,12.96
2022-10-25T08:13:50.630Z,13.15
2022-10-25T08:16:18.413Z,13.29
2022-10-25T08:18:45.738Z,13.34
2022-10-25T08:21:13.264Z,13.37
2022-10-25T08:23:41.214Z,13.50
2022-10-25T08:26:08.679Z,13.52
2022-10-25T08:28:36.957Z,13.73
2022-10-25T08:31:04.776Z,13.72
2022-10-25T08:33:33.401Z,13.77
2022-10-25T08:36:02.852Z,13.93
2022-10-25T08:38:30.462Z,14.10
2022-10-25T08:41:23.042Z,14.22
2022-10-25T08:44:26.453Z,14.36
2022-10-25T08:47:01.414Z,14.67
2022-10-25T08:50:19.605Z,14.85
2022-10-25T08:52:54.684Z,14.95
2022-10-25T08:55:58.772Z,15.16
2022-10-25T08:58:37.198Z,15.27
2022-10-25T09:01:25.521Z,15.31
2022-10-25T09:03:52.935Z,15.18
2022-10-25T09:07:05.971Z,15.30
2022-10-25T09:10:23.070Z,15.67
2022-10-25T09:13:18.819Z,15.96
2022-10-25T09:16:14.478Z,16.19
2022-10-25T09:18:54.192Z,16.20
2022-10-25T09:21:48.758Z,16.28
2022-10-25T09:24:44.848Z,16.61
2022-10-25T09:27:15.974Z,16.72
2022-10-25T09:30:20.823Z,16.89
2022-10-25T09:33:11.099Z,16.97
2022-10-25T09:35:58.467Z,17.12
2022-10-25T09:38:53.021Z,17.21
2022-10-25T09:41:35.618Z,17.32
2022-10-25T09:44:44.196Z,17.34
2022-10-25T09:47:47.580Z,17.59
2022-10-25T09:50:34.876Z,17.63
2022-10-25T09:53:12.595Z,17.70
2022-10-25T09:55:58.176Z,17.66
2022-10-25T09:58:31.285Z,17.77
2022-10-25T10:01:25.036Z,17.87
2022-10-25T10:04:00.933Z,17.87
2022-10-25T10:06:39.702Z,17.91
2022-10-25T10:09:13.384Z,17.68
2022-10-25T10:11:42.613Z,17.94
2022-10-25T10:14:21.367Z,18.10
2022-10-25T10:16:55.350Z,18.27
2022-10-25T10:19:29.863Z,18.42
2022-10-25T10:22:17.838Z,18.33
2022-10-25T10:25:02.903Z,18.57
2022-10-25T10:27:32.685Z,18.79
2022-10-25T10:30:07.358Z,18.94
2022-10-25T10:35:33.516Z,19.15
2022-10-25T10:38:22.731Z,19.29
2022-10-25T10:40:56.025Z,19.47
2022-10-25T10:43:48.471Z,19.51
2022-10-25T10:46:20.000Z,19.44
2022-10-25T10:48:56.138Z,19.77
2022-10-25T10:51:44.978Z,19.76
2022-10-25T10:54:33.193Z,19.86
2022-10-25T10:57:06.939Z,19.97
2022-10-25T10:59:53.496Z,19.88
2022-10-25T11:02:27.798Z,19.82
2022-10-25T11:04:56.869Z,19.96
2022-10-25T11:07:35.652Z,19.90
2022-10-25T11:10:22.856Z,20.34
2022-10-25T11:13:06.948Z,19.82
2022-10-25T11:16:03.243Z,20.19
2022-10-25T11:18:53.941Z,20.55
2022-10-25T11:22:12.242Z,20.62
2022-10-25T11:25:04.122Z,20.48
2022-10-25T11:29:14.590Z,20.75
2022-10-25T11:32:20.922Z,21.39
2022-10-25T11:35:19.916Z,21.73
2022-10-25T11:38:03.077Z,21.90
2022-10-25T11:40:40.870Z,21.48
2022-10-25T11:44:01.291Z,21.27
2022-10-25T11:47:49.395Z,22.00
2022-10-25T11:50:25.557Z,22.36
2022-10-25T11:54:04.484Z,23.18
2022-10-25T11:56:59.900Z,22.73
2022-10-25T11:59:46.558Z,22.76
2022-10-25T12:02:47.271Z,23.55
2022-10-25T12:06:01.368Z,24.23
2022-10-25T12:09:03.785Z,25.10
2022-10-25T12:11:42.131Z,24.74
2022-10-25T12:14:23.179Z,25.49
2022-10-25T12:16:50.748Z,25.77
2022-10-25T12:19:24.893Z,26.08
2022-10-25T12:22:05.173Z,26.18
2022-10-25T12:24:49.730Z,26.57
2022-10-25T12:27:20.172Z,27.94
2022-10-25T12:29:57.107Z,28.81
2022-10-25T12:32:43.450Z,29.17
2022-10-25T12:35:34.363Z,29.61
2022-10-25T12:38:36.969Z,29.11
2022-10-25T12:41:21.994Z,29.85
2022-10-25T12:44:45.213Z,30.35
2022-10-25T12:47:52.105Z,28.94
2022-10-25T12:50:27.862Z,29.28
2022-10-25T12:54:08.920Z,29.43
2022-10-25T12:57:08.401Z,30.78
2022-10-25T12:59:41.486Z,30.68
2022-10-25T13:02:33.179Z,30.00
2022-10-25T13:06:03.772Z,30.29
2022-10-25T13:08:33.095Z,30.85
2022-10-25T13:11:05.693Z,30.45
2022-10-25T13:13:55.811Z,31.04
2022-10-25T13:16:29.045Z,30.24
2022-10-25T13:19:53.454Z,30.37
2022-10-25T13:22:40.269Z,30.22
2022-10-25T13:25:13.655Z,30.17
2022-10-25T13:28:17.943Z,31.05
2022-10-25T13:30:45.822Z,30.78
2022-10-25T13:33:21.381Z,31.32
2022-10-25T13:35:51.531Z,31.52
2022-10-25T13:38:26.018Z,32.54
2022-10-25T13:41:15.461Z,33.54
2022-10-25T13:44:05.287Z,34.48
2022-10-25T13:46:41.277Z,32.62
2022-10-25T13:49:48.216Z,32.19
2022-10-25T13:52:32.097Z,31.04
2022-10-25T13:54:59.980Z,32.10
2022-10-25T13:57:49.652Z,32.56
2022-10-25T14:00:38.354Z,31.72
2022-10-25T14:03:08.424Z,31.37
2022-10-25T14:05:57.448Z,30.86
2022-10-25T14:08:55.845Z,30.37
2022-10-25T14:11:51.635Z,31.78
2022-10-25T14:14:56.097Z,33.29
2022-10-25T14:17:42.679Z,34.43
2022-10-25T14:20:21.698Z,35.29
2022-10-25T14:23:03.282Z,35.49
2022-10-25T14:25:57.362Z,34.74
2022-10-25T14:28:32.561Z,35.60
2022-10-25T14:31:12.276Z,36.25
2022-10-25T14:33:53.446Z,36.72
2022-10-25T14:36:37.828Z,36.85
2022-10-25T14:39:19.832Z,36.77
2022-10-25T14:41:59.233Z,36.68
2022-10-25T14:44:49.617Z,36.53
2022-10-25T14:47:31.722Z,36.24
2022-10-25T14:50:01.867Z,35.64
2022-10-25T14:52:31.209Z,35.31
2022-10-25T14:55:04.975Z,34.72
2022-10-25T14:57:34.573Z,34.07
2022-10-25T15:00:05.029Z,34.20
2022-10-25T15:02:40.512Z,34.08
2022-10-25T15:05:19.013Z,33.96
2022-10-25T15:07:47.988Z,33.20
2022-10-25T15:10:41.619Z,33.35
2022-10-25T15:13:21.105Z,33.56
2022-10-25T15:15:51.271Z,33.24
2022-10-25T15:18:30.097Z,32.89
2022-10-25T15:21:18.476Z,32.34
2022-10-25T15:24:22.992Z,32.09
2022-10-25T15:27:00.993Z,30.97
2022-10-25T15:29:40.884Z,30.38
2022-10-25T15:32:26.366Z,29.96
2022-10-25T15:35:00.504Z,29.07
2022-10-25T15:37:30.149Z,28.39
2022-10-25T15:39:58.031Z,27.50
2022-10-25T15:42:27.084Z,26.98
2022-10-25T15:44:55.370Z,26.58
2022-10-25T15:47:37.332Z,26.18
2022-10-25T15:50:16.486Z,25.49
2022-10-25T15:52:44.237Z,25.13
2022-10-25T15:55:25.556Z,24.68
2022-10-25T15:57:53.905Z,24.42
2022-10-25T16:00:27.973Z,23.98
2022-10-25T16:02:57.916Z,23.63
2022-10-25T16:05:29.601Z,23.39
2022-10-25T16:07:57.229Z,23.07
2022-10-25T16:10:27.499Z,22.83
2022-10-25T16:13:04.743Z,22.58
2022-10-25T16:15:32.790Z,22.28
2022-10-25T16:20:32.864Z,21.87
2022-10-25T16:23:00.572Z,21.67
2022-10-25T16:25:32.180Z,21.60
2022-10-25T16:28:01.628Z,21.25
2022-10-25T16:30:38.322Z,20.88
2022-10-25T16:33:08.555Z,20.60
2022-10-25T16:35:35.758Z,20.61
2022-10-25T16:38:07.525Z,20.39
2022-10-25T16:40:35.239Z,20.13
2022-10-25T16:43:02.495Z,20.14
2022-10-25T16:45:36.952Z,20.06
2022-10-25T16:48:05.846Z,19.97
2022-10-25T16:50:34.152Z,19.85
2022-10-25T16:53:09.172Z,19.70
2022-10-25T16:55:36.364Z,19.56
2022-10-25T16:58:03.492Z,19.14
2022-10-25T17:00:36.035Z,18.97
2022-10-25T17:03:03.989Z,18.67
2022-10-25T17:05:33.385Z,18.68
2022-10-25T17:08:00.889Z,18.74
2022-10-25T17:10:28.533Z,18.50
2022-10-25T17:13:03.720Z,18.50
2022-10-25T17:15:32.187Z,18.20
2022-10-25T17:17:59.748Z,18.16
2022-10-25T17:20:32.465Z,18.18
2022-10-25T17:22:59.757Z,18.02
2022-10-25T17:25:27.119Z,17.69
2022-10-25T17:27:54.501Z,17.77
2022-10-25T17:30:21.734Z,17.61
2022-10-25T17:32:49.058Z,17.59
2022-10-25T17:35:16.540Z,17.42
2022-10-25T17:37:47.136Z,17.47
2022-10-25T17:40:14.498Z,17.38
2022-10-25T17:42:41.710Z,17.30
2022-10-25T17:45:10.124Z,17.15
2022-10-25T17:47:37.698Z,17.11
2022-10-25T17:50:06.259Z,17.26
2022-10-25T17:52:33.416Z,17.01
2022-10-25T17:55:00.826Z,16.98
2022-10-25T17:57:28.031Z,16.77
2022-10-25T17:59:55.302Z,16.76
2022-10-25T18:02:22.597Z,16.73
2022-10-25T18:05:02.158Z,16.74
2022-10-25T18:07:37.953Z,16.72
2022-10-25T18:10:05.945Z,16.55
2022-10-25T18:12:33.050Z,16.55
2022-10-25T18:15:00.124Z,16.52
2022-10-25T18:17:27.265Z,16.47
2022-10-25T18:19:54.434Z,16.29
2022-10-25T18:22:21.567Z,16.10
2022-10-25T18:24:48.691Z,16.08
2022-10-25T18:27:16.058Z,16.02
2022-10-25T18:29:43.431Z,16.04
2022-10-25T18:32:10.519Z,15.89
2022-10-25T18:34:37.765Z,16.00
2022-10-25T18:37:05.382Z,16.08
2022-10-25T18:39:32.640Z,16.11
2022-10-25T18:41:59.729Z,16.02
2022-10-25T18:44:26.817Z,16.04
2022-10-25T18:46:55.790Z,16.13
2022-10-25T18:49:22.967Z,16.00
2022-10-25T18:51:50.157Z,15.95
2022-10-25T18:54:17.359Z,15.94
2022-10-25T18:56:44.790Z,15.85
2022-10-25T18:59:12.249Z,15.76
2022-10-25T19:01:40.016Z,15.56
2022-10-25T19:04:07.418Z,15.40
2022-10-25T19:06:34.942Z,15.13
2022-10-25T19:09:03.036Z,15.07
2022-10-25T19:11:32.707Z,15.11
2022-10-25T19:14:00.345Z,15.09
2022-10-25T19:16:27.758Z,15.12
2022-10-25T19:18:55.000Z,15.06
2022-10-25T19:21:22.494Z,14.83
2022-10-25T19:23:49.813Z,14.69
2022-10-25T19:26:21.507Z,14.61
2022-10-25T19:29:25.663Z,14.61
2022-10-25T19:31:53.290Z,14.49
2022-10-25T19:34:20.559Z,14.60
2022-10-25T19:36:54.725Z,14.48
2022-10-25T19:39:22.298Z,14.51
2022-10-25T19:41:50.414Z,14.63
2022-10-25T19:44:17.864Z,14.62
2022-10-25T19:46:45.846Z,14.56
2022-10-25T19:49:13.032Z,14.76
2022-10-25T19:51:40.187Z,14.88
2022-10-25T19:54:07.370Z,14.89
2022-10-25T19:56:37.093Z,14.86
2022-10-25T19:59:06.567Z,14.87
2022-10-25T20:01:34.108Z,14.81
2022-10-25T20:04:01.311Z,14.63
2022-10-25T20:06:33.977Z,14.71
2022-10-25T20:09:02.265Z,14.79
2022-10-25T20:11:31.328Z,14.83
2022-10-25T20:14:02.396Z,14.90
2022-10-25T20:16:31.751Z,14.89
2022-10-25T20:19:02.428Z,14.89
2022-10-25T20:21:36.528Z,15.02
2022-10-25T20:24:09.295Z,15.01
2022-10-25T20:26:44.607Z,15.05
2022-10-25T20:29:24.353Z,14.92
2022-10-25T20:31:52.347Z,14.84
2022-10-25T20:34:20.894Z,14.84
2022-10-25T20:36:54.668Z,14.90
2022-10-25T20:39:21.978Z,14.90
2022-10-25T20:41:49.142Z,14.82
2022-10-25T20:44:18.947Z,14.67
2022-10-25T20:46:46.258Z,14.42
2022-10-25T20:49:13.385Z,14.42
2022-10-25T20:51:40.507Z,14.49
2022-10-25T20:54:09.509Z,14.61
2022-10-25T20:56:39.141Z,14.65
2022-10-25T20:59:06.859Z,14.70
2022-10-25T21:01:34.144Z,14.63
2022-10-25T21:04:01.493Z,14.65
2022-10-25T21:06:28.643Z,14.74
2022-10-25T21:08:55.953Z,14.74
2022-10-25T21:11:23.261Z,14.74
2022-10-25T21:13:50.961Z,14.73
2022-10-25T21:16:18.205Z,14.73
2022-10-25T21:18:45.375Z,14.73
2022-10-25T21:21:20.920Z,14.77
2022-10-25T21:23:55.857Z,14.66
2022-10-25T21:26:24.030Z,14.70
2022-10-25T21:28:51.461Z,14.75
2022-10-25T21:31:18.958Z,14.68
2022-10-25T21:33:50.018Z,14.57
2022-10-25T21:36:20.408Z,14.71
2022-10-25T21:38:48.259Z,14.75
2022-10-25T21:41:20.701Z,14.68
2022-10-25T21:43:50.888Z,14.64
2022-10-25T21:46:21.384Z,14.53
2022-10-25T21:48:52.655Z,14.69
2022-10-25T21:51:22.328Z,14.74
2022-10-25T21:53:49.460Z,14.77
2022-10-25T21:56:23.083Z,14.77
2022-10-25T21:58:50.898Z,14.87
2022-10-25T22:01:23.334Z,14.77
2022-10-25T22:03:51.890Z,14.82
2022-10-25T22:06:24.896Z,14.84
2022-10-25T22:08:55.501Z,14.85
2022-10-25T22:11:31.284Z,14.96
2022-10-25T22:14:04.044Z,14.89
2022-10-25T22:16:34.149Z,14.94
2022-10-25T22:19:07.201Z,15.06
2022-10-25T22:21:39.473Z,14.81
2022-10-25T22:24:10.034Z,14.03
2022-10-25T22:26:41.918Z,14.39
2022-10-25T22:29:13.978Z,14.45
2022-10-25T22:31:41.429Z,14.62
2022-10-25T22:34:09.843Z,14.73
2022-10-25T22:36:40.847Z,14.90
2022-10-25T22:39:09.444Z,15.01
2022-10-25T22:41:37.158Z,15.00
2022-10-25T22:44:04.880Z,15.01
2022-10-25T22:46:35.303Z,15.07
2022-10-25T22:49:09.225Z,14.95
2022-10-25T22:51:38.004Z,14.82
2022-10-25T22:54:05.903Z,15.01
2022-10-25T22:56:33.367Z,15.12
2022-10-25T22:59:05.468Z,15.17
2022-10-25T23:01:37.993Z,15.30
2022-10-25T23:04:09.251Z,15.21
2022-10-25T23:06:39.716Z,15.14
2022-10-25T23:09:10.631Z,15.13
2022-10-25T23:11:40.762Z,15.21
2022-10-25T23:14:13.423Z,15.27
2022-10-25T23:16:44.429Z,15.20
2022-10-25T23:19:11.592Z,15.19
2022-10-25T23:21:39.062Z,15.29
2022-10-25T23:24:06.603Z,15.31
2022-10-25T23:26:37.851Z,15.36
2022-10-25T23:29:05.949Z,15.37
2022-10-25T23:31:33.590Z,15.31
2022-10-25T23:34:01.338Z,15.28
2022-10-25T23:36:37.672Z,14.90
2022-10-25T23:39:08.065Z,15.01
2022-10-25T23:41:35.975Z,15.14
2022-10-25T23:44:03.353Z,15.23
2022-10-25T23:46:30.488Z,15.25
2022-10-25T23:48:58.013Z,15.22
2022-10-25T23:51:25.695Z,15.22
2022-10-25T23:53:52.818Z,15.14
2022-10-25T23:56:19.956Z,14.86
2022-10-25T23:58:50.343Z,14.91
